sensor_id;sensor_type;location;lat;lon;timestamp;P1;durP1;ratioP1;P2;durP2;ratioP2
71773;SDS011;59607;52.130;5.430;2023-06-22T00:01:33;5.30;;;4.80;;
71773;SDS011;59607;52.130;5.430;2023-06-22T00:04:01;4.55;;;4.25;;
71773;SDS011;59607;52.130;5.430;2023-06-22T00:06:33;5.70;;;5.20;;
71773;SDS011;59607;52.130;5.430;2023-06-22T00:09:01;5.60;;;5.10;;
71773;SDS011;59607;52.130;5.430;2023-06-22T00:11:30;7.25;;;5.05;;
71773;SDS011;59607;52.130;5.430;2023-06-22T00:13:59;6.03;;;5.30;;
71773;SDS011;59607;52.130;5.430;2023-06-22T00:16:26;7.32;;;5.30;;
71773;SDS011;59607;52.130;5.430;2023-06-22T00:18:59;7.22;;;5.43;;
71773;SDS011;59607;52.130;5.430;2023-06-22T00:21:32;5.70;;;5.15;;
71773;SDS011;59607;52.130;5.430;2023-06-22T00:24:02;6.20;;;5.70;;
71773;SDS011;59607;52.130;5.430;2023-06-22T00:26:30;8.27;;;6.17;;
71773;SDS011;59607;52.130;5.430;2023-06-22T00:28:59;7.00;;;6.25;;
71773;SDS011;59607;52.130;5.430;2023-06-22T00:31:28;7.07;;;5.80;;
71773;SDS011;59607;52.130;5.430;2023-06-22T00:33:54;6.07;;;5.63;;
71773;SDS011;59607;52.130;5.430;2023-06-22T00:36:26;7.10;;;6.03;;
71773;SDS011;59607;52.130;5.430;2023-06-22T00:38:52;6.73;;;6.03;;
71773;SDS011;59607;52.130;5.430;2023-06-22T00:41:20;5.93;;;5.43;;
71773;SDS011;59607;52.130;5.430;2023-06-22T00:43:52;6.97;;;6.00;;
71773;SDS011;59607;52.130;5.430;2023-06-22T00:46:21;7.70;;;5.85;;
71773;SDS011;59607;52.130;5.430;2023-06-22T00:48:54;6.53;;;5.68;;
71773;SDS011;59607;52.130;5.430;2023-06-22T00:51:23;5.83;;;5.37;;
71773;SDS011;59607;52.130;5.430;2023-06-22T00:53:58;6.40;;;5.88;;
71773;SDS011;59607;52.130;5.430;2023-06-22T00:56:25;6.13;;;5.63;;
71773;SDS011;59607;52.130;5.430;2023-06-22T00:58:58;5.50;;;5.05;;
71773;SDS011;59607;52.130;5.430;2023-06-22T01:01:25;5.72;;;5.22;;
71773;SDS011;59607;52.130;5.430;2023-06-22T01:04:07;6.27;;;5.47;;
71773;SDS011;59607;52.130;5.430;2023-06-22T01:10:10;6.82;;;6.13;;
71773;SDS011;59607;52.130;5.430;2023-06-22T01:12:54;7.88;;;5.25;;
71773;SDS011;59607;52.130;5.430;2023-06-22T01:15:29;6.03;;;5.35;;
71773;SDS011;59607;52.130;5.430;2023-06-22T01:18:06;6.53;;;5.93;;
71773;SDS011;59607;52.130;5.430;2023-06-22T01:20:40;6.95;;;5.70;;
71773;SDS011;59607;52.130;5.430;2023-06-22T01:28:53;6.32;;;5.40;;
71773;SDS011;59607;52.130;5.430;2023-06-22T01:31:25;6.63;;;6.03;;
71773;SDS011;59607;52.130;5.430;2023-06-22T01:33:59;9.40;;;5.43;;
71773;SDS011;59607;52.130;5.430;2023-06-22T01:36:31;6.70;;;6.05;;
71773;SDS011;59607;52.130;5.430;2023-06-22T01:39:02;6.72;;;6.03;;
71773;SDS011;59607;52.130;5.430;2023-06-22T01:41:34;6.10;;;5.60;;
71773;SDS011;59607;52.130;5.430;2023-06-22T01:44:05;6.10;;;5.53;;
71773;SDS011;59607;52.130;5.430;2023-06-22T01:46:34;6.22;;;5.63;;
71773;SDS011;59607;52.130;5.430;2023-06-22T01:49:04;7.15;;;6.43;;
71773;SDS011;59607;52.130;5.430;2023-06-22T01:51:32;9.88;;;6.03;;
71773;SDS011;59607;52.130;5.430;2023-06-22T01:54:14;7.05;;;6.00;;
71773;SDS011;59607;52.130;5.430;2023-06-22T01:56:43;9.40;;;6.07;;
71773;SDS011;59607;52.130;5.430;2023-06-22T01:59:12;6.20;;;5.60;;
71773;SDS011;59607;52.130;5.430;2023-06-22T02:02:02;6.50;;;5.90;;
71773;SDS011;59607;52.130;5.430;2023-06-22T02:05:18;6.18;;;5.57;;
71773;SDS011;59607;52.130;5.430;2023-06-22T02:07:32;7.72;;;5.85;;
71773;SDS011;59607;52.130;5.430;2023-06-22T02:10:05;6.43;;;5.70;;
71773;SDS011;59607;52.130;5.430;2023-06-22T02:12:40;9.77;;;6.57;;
71773;SDS011;59607;52.130;5.430;2023-06-22T02:15:17;7.18;;;6.50;;
71773;SDS011;59607;52.130;5.430;2023-06-22T02:17:44;6.85;;;6.25;;
71773;SDS011;59607;52.130;5.430;2023-06-22T02:20:12;6.05;;;5.53;;
71773;SDS011;59607;52.130;5.430;2023-06-22T02:22:41;6.80;;;5.50;;
71773;SDS011;59607;52.130;5.430;2023-06-22T02:25:08;6.30;;;5.70;;
71773;SDS011;59607;52.130;5.430;2023-06-22T02:27:40;6.75;;;6.10;;
71773;SDS011;59607;52.130;5.430;2023-06-22T02:30:10;7.55;;;6.38;;
71773;SDS011;59607;52.130;5.430;2023-06-22T02:32:43;6.25;;;5.53;;
71773;SDS011;59607;52.130;5.430;2023-06-22T02:35:09;6.40;;;5.80;;
71773;SDS011;59607;52.130;5.430;2023-06-22T02:37:45;6.63;;;6.10;;
71773;SDS011;59607;52.130;5.430;2023-06-22T02:40:12;6.55;;;5.95;;
71773;SDS011;59607;52.130;5.430;2023-06-22T02:42:40;8.20;;;5.90;;
71773;SDS011;59607;52.130;5.430;2023-06-22T02:45:09;5.70;;;5.20;;
71773;SDS011;59607;52.130;5.430;2023-06-22T02:47:36;6.40;;;5.67;;
71773;SDS011;59607;52.130;5.430;2023-06-22T02:50:08;7.95;;;6.03;;
71773;SDS011;59607;52.130;5.430;2023-06-22T02:52:40;7.00;;;6.32;;
71773;SDS011;59607;52.130;5.430;2023-06-22T02:55:16;7.13;;;6.45;;
71773;SDS011;59607;52.130;5.430;2023-06-22T02:57:42;6.95;;;6.25;;
71773;SDS011;59607;52.130;5.430;2023-06-22T03:00:10;8.33;;;6.57;;
71773;SDS011;59607;52.130;5.430;2023-06-22T03:02:43;10.35;;;6.35;;
71773;SDS011;59607;52.130;5.430;2023-06-22T03:05:21;6.57;;;6.07;;
71773;SDS011;59607;52.130;5.430;2023-06-22T03:07:48;7.15;;;6.45;;
71773;SDS011;59607;52.130;5.430;2023-06-22T03:10:15;13.00;;;6.22;;
71773;SDS011;59607;52.130;5.430;2023-06-22T03:12:43;7.63;;;6.83;;
71773;SDS011;59607;52.130;5.430;2023-06-22T03:15:11;8.48;;;6.15;;
71773;SDS011;59607;52.130;5.430;2023-06-22T03:17:53;7.95;;;6.30;;
71773;SDS011;59607;52.130;5.430;2023-06-22T03:20:30;7.32;;;6.45;;
71773;SDS011;59607;52.130;5.430;2023-06-22T03:22:59;7.65;;;6.63;;
71773;SDS011;59607;52.130;5.430;2023-06-22T03:25:31;8.00;;;6.90;;
71773;SDS011;59607;52.130;5.430;2023-06-22T03:27:57;11.13;;;6.88;;
71773;SDS011;59607;52.130;5.430;2023-06-22T03:30:25;14.52;;;7.22;;
71773;SDS011;59607;52.130;5.430;2023-06-22T03:32:56;8.80;;;7.50;;
71773;SDS011;59607;52.130;5.430;2023-06-22T03:35:22;9.43;;;7.25;;
71773;SDS011;59607;52.130;5.430;2023-06-22T03:37:49;10.77;;;7.50;;
71773;SDS011;59607;52.130;5.430;2023-06-22T03:40:18;7.78;;;6.90;;
71773;SDS011;59607;52.130;5.430;2023-06-22T03:42:45;8.10;;;7.35;;
71773;SDS011;59607;52.130;5.430;2023-06-22T03:45:22;12.63;;;7.20;;
71773;SDS011;59607;52.130;5.430;2023-06-22T03:47:49;7.65;;;6.82;;
71773;SDS011;59607;52.130;5.430;2023-06-22T03:50:19;7.37;;;6.67;;
71773;SDS011;59607;52.130;5.430;2023-06-22T03:52:54;9.30;;;7.22;;
71773;SDS011;59607;52.130;5.430;2023-06-22T03:55:22;7.65;;;6.72;;
71773;SDS011;59607;52.130;5.430;2023-06-22T03:57:51;8.18;;;6.72;;
71773;SDS011;59607;52.130;5.430;2023-06-22T04:00:19;11.25;;;7.75;;
71773;SDS011;59607;52.130;5.430;2023-06-22T04:02:59;8.60;;;6.93;;
71773;SDS011;59607;52.130;5.430;2023-06-22T04:05:34;8.88;;;7.20;;
71773;SDS011;59607;52.130;5.430;2023-06-22T04:08:05;9.93;;;7.25;;
71773;SDS011;59607;52.130;5.430;2023-06-22T04:10:38;7.63;;;6.95;;
71773;SDS011;59607;52.130;5.430;2023-06-22T04:13:06;8.98;;;7.43;;
71773;SDS011;59607;52.130;5.430;2023-06-22T04:15:36;9.20;;;7.63;;
71773;SDS011;59607;52.130;5.430;2023-06-22T04:18:02;9.70;;;7.20;;
71773;SDS011;59607;52.130;5.430;2023-06-22T04:20:30;7.22;;;6.50;;
71773;SDS011;59607;52.130;5.430;2023-06-22T04:23:03;12.50;;;7.82;;
71773;SDS011;59607;52.130;5.430;2023-06-22T04:25:29;9.23;;;7.40;;
71773;SDS011;59607;52.130;5.430;2023-06-22T04:28:00;9.60;;;7.93;;
71773;SDS011;59607;52.130;5.430;2023-06-22T04:30:29;9.82;;;7.95;;
71773;SDS011;59607;52.130;5.430;2023-06-22T04:32:57;9.77;;;7.20;;
71773;SDS011;59607;52.130;5.430;2023-06-22T04:35:24;9.07;;;8.38;;
71773;SDS011;59607;52.130;5.430;2023-06-22T04:37:52;8.65;;;7.85;;
71773;SDS011;59607;52.130;5.430;2023-06-22T04:40:26;9.77;;;8.33;;
71773;SDS011;59607;52.130;5.430;2023-06-22T04:42:55;11.15;;;9.38;;
71773;SDS011;59607;52.130;5.430;2023-06-22T04:45:28;10.40;;;7.95;;
71773;SDS011;59607;52.130;5.430;2023-06-22T04:47:58;9.95;;;8.98;;
71773;SDS011;59607;52.130;5.430;2023-06-22T04:50:31;10.05;;;9.07;;
71773;SDS011;59607;52.130;5.430;2023-06-22T04:52:58;9.50;;;8.70;;
71773;SDS011;59607;52.130;5.430;2023-06-22T04:55:26;9.77;;;8.77;;
71773;SDS011;59607;52.130;5.430;2023-06-22T04:57:54;10.38;;;9.38;;
71773;SDS011;59607;52.130;5.430;2023-06-22T05:00:20;10.48;;;9.48;;
71773;SDS011;59607;52.130;5.430;2023-06-22T05:02:49;10.98;;;9.98;;
71773;SDS011;59607;52.130;5.430;2023-06-22T05:05:19;12.10;;;10.97;;
71773;SDS011;59607;52.130;5.430;2023-06-22T05:07:46;13.52;;;10.55;;
71773;SDS011;59607;52.130;5.430;2023-06-22T05:10:25;12.25;;;10.98;;
71773;SDS011;59607;52.130;5.430;2023-06-22T05:12:55;13.00;;;11.80;;
71773;SDS011;59607;52.130;5.430;2023-06-22T05:15:26;12.43;;;11.23;;
71773;SDS011;59607;52.130;5.430;2023-06-22T05:18:13;13.57;;;11.10;;
71773;SDS011;59607;52.130;5.430;2023-06-22T05:20:46;14.40;;;12.82;;
71773;SDS011;59607;52.130;5.430;2023-06-22T05:23:12;15.05;;;12.70;;
71773;SDS011;59607;52.130;5.430;2023-06-22T05:25:39;14.50;;;12.98;;
71773;SDS011;59607;52.130;5.430;2023-06-22T05:28:08;15.32;;;13.80;;
71773;SDS011;59607;52.130;5.430;2023-06-22T05:30:37;17.17;;;14.07;;
71773;SDS011;59607;52.130;5.430;2023-06-22T05:33:12;17.17;;;14.68;;
71773;SDS011;59607;52.130;5.430;2023-06-22T05:35:39;15.65;;;13.68;;
71773;SDS011;59607;52.130;5.430;2023-06-22T05:38:08;20.30;;;14.70;;
71773;SDS011;59607;52.130;5.430;2023-06-22T05:40:34;16.77;;;14.43;;
71773;SDS011;59607;52.130;5.430;2023-06-22T05:43:00;16.63;;;14.80;;
71773;SDS011;59607;52.130;5.430;2023-06-22T05:45:29;17.30;;;15.50;;
71773;SDS011;59607;52.130;5.430;2023-06-22T05:47:58;21.08;;;15.80;;
71773;SDS011;59607;52.130;5.430;2023-06-22T05:50:25;16.95;;;15.20;;
71773;SDS011;59607;52.130;5.430;2023-06-22T05:52:54;17.65;;;15.73;;
71773;SDS011;59607;52.130;5.430;2023-06-22T05:55:24;17.43;;;15.73;;
71773;SDS011;59607;52.130;5.430;2023-06-22T05:57:51;17.45;;;15.40;;
71773;SDS011;59607;52.130;5.430;2023-06-22T06:00:17;18.33;;;16.33;;
71773;SDS011;59607;52.130;5.430;2023-06-22T06:02:51;17.95;;;16.13;;
71773;SDS011;59607;52.130;5.430;2023-06-22T06:05:21;17.50;;;14.93;;
71773;SDS011;59607;52.130;5.430;2023-06-22T06:07:49;17.53;;;15.63;;
71773;SDS011;59607;52.130;5.430;2023-06-22T06:10:15;20.20;;;15.00;;
71773;SDS011;59607;52.130;5.430;2023-06-22T06:12:42;20.75;;;14.95;;
71773;SDS011;59607;52.130;5.430;2023-06-22T06:15:22;15.23;;;13.63;;
71773;SDS011;59607;52.130;5.430;2023-06-22T06:18:06;16.58;;;14.65;;
71773;SDS011;59607;52.130;5.430;2023-06-22T06:20:44;17.60;;;14.17;;
71773;SDS011;59607;52.130;5.430;2023-06-22T06:23:11;16.80;;;15.10;;
71773;SDS011;59607;52.130;5.430;2023-06-22T06:25:40;16.55;;;14.85;;
71773;SDS011;59607;52.130;5.430;2023-06-22T06:28:06;15.45;;;14.02;;
71773;SDS011;59607;52.130;5.430;2023-06-22T06:30:42;16.88;;;14.45;;
71773;SDS011;59607;52.130;5.430;2023-06-22T06:33:09;15.90;;;14.20;;
71773;SDS011;59607;52.130;5.430;2023-06-22T06:35:45;16.58;;;14.93;;
71773;SDS011;59607;52.130;5.430;2023-06-22T06:38:12;16.13;;;14.45;;
71773;SDS011;59607;52.130;5.430;2023-06-22T06:40:41;17.52;;;15.32;;
71773;SDS011;59607;52.130;5.430;2023-06-22T06:43:08;18.20;;;16.40;;
71773;SDS011;59607;52.130;5.430;2023-06-22T06:45:34;18.57;;;14.93;;
71773;SDS011;59607;52.130;5.430;2023-06-22T06:48:01;17.08;;;15.25;;
71773;SDS011;59607;52.130;5.430;2023-06-22T06:50:31;16.75;;;14.48;;
71773;SDS011;59607;52.130;5.430;2023-06-22T06:52:58;18.27;;;15.90;;
71773;SDS011;59607;52.130;5.430;2023-06-22T06:55:28;17.13;;;15.20;;
71773;SDS011;59607;52.130;5.430;2023-06-22T06:58:01;17.30;;;15.43;;
71773;SDS011;59607;52.130;5.430;2023-06-22T07:00:36;16.27;;;14.57;;
71773;SDS011;59607;52.130;5.430;2023-06-22T07:03:04;17.98;;;14.65;;
71773;SDS011;59607;52.130;5.430;2023-06-22T07:05:31;15.73;;;14.20;;
71773;SDS011;59607;52.130;5.430;2023-06-22T07:08:03;16.02;;;14.40;;
71773;SDS011;59607;52.130;5.430;2023-06-22T07:10:33;16.77;;;13.93;;
71773;SDS011;59607;52.130;5.430;2023-06-22T07:12:59;17.13;;;13.38;;
71773;SDS011;59607;52.130;5.430;2023-06-22T07:15:28;16.08;;;13.50;;
71773;SDS011;59607;52.130;5.430;2023-06-22T07:17:55;14.32;;;12.85;;
71773;SDS011;59607;52.130;5.430;2023-06-22T07:20:22;13.23;;;11.95;;
71773;SDS011;59607;52.130;5.430;2023-06-22T07:22:48;14.47;;;12.50;;
71773;SDS011;59607;52.130;5.430;2023-06-22T07:25:15;16.63;;;12.85;;
71773;SDS011;59607;52.130;5.430;2023-06-22T07:27:45;15.90;;;11.25;;
71773;SDS011;59607;52.130;5.430;2023-06-22T07:30:22;13.20;;;11.80;;
71773;SDS011;59607;52.130;5.430;2023-06-22T07:32:53;13.18;;;11.90;;
71773;SDS011;59607;52.130;5.430;2023-06-22T07:35:20;13.27;;;11.07;;
71773;SDS011;59607;52.130;5.430;2023-06-22T07:37:47;12.73;;;10.65;;
71773;SDS011;59607;52.130;5.430;2023-06-22T07:40:20;12.00;;;10.85;;
71773;SDS011;59607;52.130;5.430;2023-06-22T07:42:46;13.52;;;11.55;;
71773;SDS011;59607;52.130;5.430;2023-06-22T07:45:17;12.07;;;10.88;;
71773;SDS011;59607;52.130;5.430;2023-06-22T07:47:47;12.87;;;11.67;;
71773;SDS011;59607;52.130;5.430;2023-06-22T07:50:14;13.02;;;10.43;;
71773;SDS011;59607;52.130;5.430;2023-06-22T07:52:43;12.52;;;11.30;;
71773;SDS011;59607;52.130;5.430;2023-06-22T07:55:10;11.48;;;10.13;;
71773;SDS011;59607;52.130;5.430;2023-06-22T07:57:36;11.43;;;10.27;;
71773;SDS011;59607;52.130;5.430;2023-06-22T08:00:08;13.00;;;10.80;;
71773;SDS011;59607;52.130;5.430;2023-06-22T08:02:42;11.88;;;10.77;;
71773;SDS011;59607;52.130;5.430;2023-06-22T08:05:11;10.98;;;9.98;;
71773;SDS011;59607;52.130;5.430;2023-06-22T08:07:58;10.50;;;9.55;;
71773;SDS011;59607;52.130;5.430;2023-06-22T08:10:24;11.07;;;10.05;;
71773;SDS011;59607;52.130;5.430;2023-06-22T08:12:57;11.67;;;10.57;;
71773;SDS011;59607;52.130;5.430;2023-06-22T08:15:23;11.52;;;9.40;;
71773;SDS011;59607;52.130;5.430;2023-06-22T08:17:53;10.95;;;10.00;;
71773;SDS011;59607;52.130;5.430;2023-06-22T08:20:27;9.70;;;8.90;;
71773;SDS011;59607;52.130;5.430;2023-06-22T08:22:56;10.18;;;9.35;;
71773;SDS011;59607;52.130;5.430;2023-06-22T08:25:27;11.90;;;8.80;;
71773;SDS011;59607;52.130;5.430;2023-06-22T08:27:55;10.00;;;9.00;;
71773;SDS011;59607;52.130;5.430;2023-06-22T08:30:24;12.38;;;9.27;;
71773;SDS011;59607;52.130;5.430;2023-06-22T08:32:51;9.57;;;8.68;;
71773;SDS011;59607;52.130;5.430;2023-06-22T08:35:21;9.35;;;8.23;;
71773;SDS011;59607;52.130;5.430;2023-06-22T08:37:48;8.13;;;7.43;;
71773;SDS011;59607;52.130;5.430;2023-06-22T08:40:31;9.30;;;7.47;;
71773;SDS011;59607;52.130;5.430;2023-06-22T08:42:57;8.98;;;7.15;;
71773;SDS011;59607;52.130;5.430;2023-06-22T08:45:27;8.05;;;7.35;;
71773;SDS011;59607;52.130;5.430;2023-06-22T08:47:57;7.93;;;6.88;;
71773;SDS011;59607;52.130;5.430;2023-06-22T08:50:24;6.87;;;6.07;;
71773;SDS011;59607;52.130;5.430;2023-06-22T08:53:06;7.15;;;6.60;;
71773;SDS011;59607;52.130;5.430;2023-06-22T08:55:40;7.07;;;6.38;;
71773;SDS011;59607;52.130;5.430;2023-06-22T08:58:07;14.63;;;8.18;;
71773;SDS011;59607;52.130;5.430;2023-06-22T09:00:34;6.82;;;6.20;;
71773;SDS011;59607;52.130;5.430;2023-06-22T09:03:01;7.13;;;6.50;;
71773;SDS011;59607;52.130;5.430;2023-06-22T09:05:28;6.13;;;5.50;;
71773;SDS011;59607;52.130;5.430;2023-06-22T09:07:59;5.55;;;5.03;;
71773;SDS011;59607;52.130;5.430;2023-06-22T09:10:25;6.22;;;4.40;;
71773;SDS011;59607;52.130;5.430;2023-06-22T09:12:53;3.58;;;3.28;;
71773;SDS011;59607;52.130;5.430;2023-06-22T09:15:22;3.93;;;3.50;;
71773;SDS011;59607;52.130;5.430;2023-06-22T09:17:49;3.67;;;3.38;;
71773;SDS011;59607;52.130;5.430;2023-06-22T09:20:16;3.53;;;3.03;;
71773;SDS011;59607;52.130;5.430;2023-06-22T09:22:43;5.57;;;3.65;;
71773;SDS011;59607;52.130;5.430;2023-06-22T09:25:13;6.63;;;5.18;;
71773;SDS011;59607;52.130;5.430;2023-06-22T09:27:39;5.23;;;4.83;;
71773;SDS011;59607;52.130;5.430;2023-06-22T09:30:11;5.90;;;5.50;;
71773;SDS011;59607;52.130;5.430;2023-06-22T09:32:47;6.35;;;5.75;;
71773;SDS011;59607;52.130;5.430;2023-06-22T09:35:13;4.88;;;4.43;;
71773;SDS011;59607;52.130;5.430;2023-06-22T09:37:40;5.55;;;5.05;;
71773;SDS011;59607;52.130;5.430;2023-06-22T09:40:07;5.23;;;4.77;;
71773;SDS011;59607;52.130;5.430;2023-06-22T09:42:42;5.47;;;5.07;;
71773;SDS011;59607;52.130;5.430;2023-06-22T09:45:09;6.80;;;6.10;;
71773;SDS011;59607;52.130;5.430;2023-06-22T09:47:40;4.88;;;4.47;;
71773;SDS011;59607;52.130;5.430;2023-06-22T09:50:06;6.35;;;5.15;;
71773;SDS011;59607;52.130;5.430;2023-06-22T09:52:34;5.57;;;5.00;;
71773;SDS011;59607;52.130;5.430;2023-06-22T09:55:14;5.78;;;5.28;;
71773;SDS011;59607;52.130;5.430;2023-06-22T09:57:50;6.50;;;5.97;;
71773;SDS011;59607;52.130;5.430;2023-06-22T10:00:17;5.70;;;5.20;;
71773;SDS011;59607;52.130;5.430;2023-06-22T10:02:52;5.68;;;5.18;;
71773;SDS011;59607;52.130;5.430;2023-06-22T10:05:19;5.30;;;4.80;;
71773;SDS011;59607;52.130;5.430;2023-06-22T10:07:46;5.10;;;4.45;;
71773;SDS011;59607;52.130;5.430;2023-06-22T10:10:13;4.40;;;4.00;;
71773;SDS011;59607;52.130;5.430;2023-06-22T10:12:47;4.15;;;3.75;;
71773;SDS011;59607;52.130;5.430;2023-06-22T10:15:36;4.97;;;4.47;;
71773;SDS011;59607;52.130;5.430;2023-06-22T10:18:06;4.60;;;4.20;;
71773;SDS011;59607;52.130;5.430;2023-06-22T10:20:33;4.60;;;3.80;;
71773;SDS011;59607;52.130;5.430;2023-06-22T10:23:04;3.70;;;3.40;;
71773;SDS011;59607;52.130;5.430;2023-06-22T10:25:30;4.18;;;3.78;;
71773;SDS011;59607;52.130;5.430;2023-06-22T10:27:57;7.05;;;4.90;;
71773;SDS011;59607;52.130;5.430;2023-06-22T10:30:27;4.47;;;4.10;;
71773;SDS011;59607;52.130;5.430;2023-06-22T10:32:55;4.57;;;4.18;;
71773;SDS011;59607;52.130;5.430;2023-06-22T10:35:35;4.85;;;4.03;;
71773;SDS011;59607;52.130;5.430;2023-06-22T10:38:06;3.83;;;3.53;;
71773;SDS011;59607;52.130;5.430;2023-06-22T10:40:36;4.47;;;4.07;;
71773;SDS011;59607;52.130;5.430;2023-06-22T10:43:09;4.70;;;3.80;;
71773;SDS011;59607;52.130;5.430;2023-06-22T10:45:39;4.20;;;3.75;;
71773;SDS011;59607;52.130;5.430;2023-06-22T10:48:12;5.30;;;3.75;;
71773;SDS011;59607;52.130;5.430;2023-06-22T10:50:42;4.82;;;3.78;;
71773;SDS011;59607;52.130;5.430;2023-06-22T10:53:08;4.40;;;4.00;;
71773;SDS011;59607;52.130;5.430;2023-06-22T10:55:41;4.23;;;3.80;;
71773;SDS011;59607;52.130;5.430;2023-06-22T10:58:24;4.88;;;4.40;;
71773;SDS011;59607;52.130;5.430;2023-06-22T11:00:51;5.13;;;4.63;;
71773;SDS011;59607;52.130;5.430;2023-06-22T11:03:28;5.13;;;4.70;;
71773;SDS011;59607;52.130;5.430;2023-06-22T11:06:01;5.22;;;4.82;;
71773;SDS011;59607;52.130;5.430;2023-06-22T11:08:30;4.87;;;4.57;;
71773;SDS011;59607;52.130;5.430;2023-06-22T11:11:02;4.82;;;4.43;;
71773;SDS011;59607;52.130;5.430;2023-06-22T11:13:29;4.38;;;3.97;;
71773;SDS011;59607;52.130;5.430;2023-06-22T11:15:55;5.15;;;4.75;;
71773;SDS011;59607;52.130;5.430;2023-06-22T11:18:22;5.53;;;5.07;;
71773;SDS011;59607;52.130;5.430;2023-06-22T11:20:54;5.17;;;4.67;;
71773;SDS011;59607;52.130;5.430;2023-06-22T11:23:20;4.78;;;4.38;;
71773;SDS011;59607;52.130;5.430;2023-06-22T11:25:55;4.03;;;3.72;;
71773;SDS011;59607;52.130;5.430;2023-06-22T11:28:22;5.03;;;4.63;;
71773;SDS011;59607;52.130;5.430;2023-06-22T11:30:48;4.57;;;4.28;;
71773;SDS011;59607;52.130;5.430;2023-06-22T11:33:16;5.47;;;4.97;;
71773;SDS011;59607;52.130;5.430;2023-06-22T11:35:46;5.20;;;4.70;;
71773;SDS011;59607;52.130;5.430;2023-06-22T11:38:12;5.00;;;4.50;;
71773;SDS011;59607;52.130;5.430;2023-06-22T11:40:46;5.18;;;4.78;;
71773;SDS011;59607;52.130;5.430;2023-06-22T11:43:12;9.13;;;6.78;;
71773;SDS011;59607;52.130;5.430;2023-06-22T11:45:47;7.43;;;6.83;;
71773;SDS011;59607;52.130;5.430;2023-06-22T11:48:13;8.38;;;7.65;;
71773;SDS011;59607;52.130;5.430;2023-06-22T11:50:40;10.07;;;7.57;;
71773;SDS011;59607;52.130;5.430;2023-06-22T11:53:12;8.75;;;7.95;;
71773;SDS011;59607;52.130;5.430;2023-06-22T11:55:48;7.97;;;7.35;;
71773;SDS011;59607;52.130;5.430;2023-06-22T11:58:18;7.20;;;6.57;;
71773;SDS011;59607;52.130;5.430;2023-06-22T12:00:45;7.85;;;7.05;;
71773;SDS011;59607;52.130;5.430;2023-06-22T12:03:21;8.10;;;6.53;;
71773;SDS011;59607;52.130;5.430;2023-06-22T12:05:50;8.10;;;7.40;;
71773;SDS011;59607;52.130;5.430;2023-06-22T12:08:22;8.80;;;7.90;;
71773;SDS011;59607;52.130;5.430;2023-06-22T12:10:49;7.37;;;6.63;;
71773;SDS011;59607;52.130;5.430;2023-06-22T12:13:16;7.68;;;7.07;;
71773;SDS011;59607;52.130;5.430;2023-06-22T12:15:47;7.60;;;6.57;;
71773;SDS011;59607;52.130;5.430;2023-06-22T12:18:13;7.63;;;6.93;;
71773;SDS011;59607;52.130;5.430;2023-06-22T12:20:51;8.25;;;7.50;;
71773;SDS011;59607;52.130;5.430;2023-06-22T12:23:17;8.20;;;7.50;;
71773;SDS011;59607;52.130;5.430;2023-06-22T12:25:49;9.90;;;8.90;;
71773;SDS011;59607;52.130;5.430;2023-06-22T12:28:16;9.18;;;8.35;;
71773;SDS011;59607;52.130;5.430;2023-06-22T12:30:42;12.30;;;8.60;;
71773;SDS011;59607;52.130;5.430;2023-06-22T12:33:12;9.18;;;8.48;;
71773;SDS011;59607;52.130;5.430;2023-06-22T12:35:38;9.93;;;9.00;;
71773;SDS011;59607;52.130;5.430;2023-06-22T12:38:08;8.52;;;7.75;;
71773;SDS011;59607;52.130;5.430;2023-06-22T12:40:38;8.15;;;7.47;;
71773;SDS011;59607;52.130;5.430;2023-06-22T12:43:05;7.07;;;6.47;;
71773;SDS011;59607;52.130;5.430;2023-06-22T12:45:38;7.75;;;7.15;;
71773;SDS011;59607;52.130;5.430;2023-06-22T12:48:05;6.83;;;6.13;;
71773;SDS011;59607;52.130;5.430;2023-06-22T12:50:36;7.30;;;6.70;;
71773;SDS011;59607;52.130;5.430;2023-06-22T12:53:05;6.63;;;6.13;;
71773;SDS011;59607;52.130;5.430;2023-06-22T12:55:32;6.93;;;6.32;;
71773;SDS011;59607;52.130;5.430;2023-06-22T12:58:02;7.13;;;6.63;;
71773;SDS011;59607;52.130;5.430;2023-06-22T13:00:29;7.37;;;6.67;;
71773;SDS011;59607;52.130;5.430;2023-06-22T13:02:56;5.82;;;5.40;;
71773;SDS011;59607;52.130;5.430;2023-06-22T13:05:26;8.95;;;6.57;;
71773;SDS011;59607;52.130;5.430;2023-06-22T13:07:52;8.55;;;6.78;;
71773;SDS011;59607;52.130;5.430;2023-06-22T13:10:21;7.05;;;5.93;;
71773;SDS011;59607;52.130;5.430;2023-06-22T13:12:48;6.80;;;6.00;;
71773;SDS011;59607;52.130;5.430;2023-06-22T13:15:14;6.78;;;5.72;;
71773;SDS011;59607;52.130;5.430;2023-06-22T13:17:44;7.07;;;6.32;;
71773;SDS011;59607;52.130;5.430;2023-06-22T13:20:16;7.82;;;6.03;;
71773;SDS011;59607;52.130;5.430;2023-06-22T13:22:42;6.40;;;6.00;;
71773;SDS011;59607;52.130;5.430;2023-06-22T13:25:13;6.40;;;5.80;;
71773;SDS011;59607;52.130;5.430;2023-06-22T13:27:42;6.47;;;5.90;;
71773;SDS011;59607;52.130;5.430;2023-06-22T13:30:16;8.40;;;6.95;;
71773;SDS011;59607;52.130;5.430;2023-06-22T13:32:43;8.70;;;7.32;;
71773;SDS011;59607;52.130;5.430;2023-06-22T13:35:10;8.55;;;7.75;;
71773;SDS011;59607;52.130;5.430;2023-06-22T13:37:39;8.60;;;7.90;;
71773;SDS011;59607;52.130;5.430;2023-06-22T13:40:07;9.63;;;7.97;;
71773;SDS011;59607;52.130;5.430;2023-06-22T13:42:43;8.65;;;7.65;;
71773;SDS011;59607;52.130;5.430;2023-06-22T13:45:10;8.18;;;7.57;;
71773;SDS011;59607;52.130;5.430;2023-06-22T13:47:37;7.53;;;6.80;;
71773;SDS011;59607;52.130;5.430;2023-06-22T13:50:07;7.70;;;6.93;;
71773;SDS011;59607;52.130;5.430;2023-06-22T13:52:34;7.50;;;6.25;;
71773;SDS011;59607;52.130;5.430;2023-06-22T13:55:04;7.57;;;6.97;;
71773;SDS011;59607;52.130;5.430;2023-06-22T13:57:36;8.75;;;7.82;;
71773;SDS011;59607;52.130;5.430;2023-06-22T14:00:06;7.22;;;6.63;;
71773;SDS011;59607;52.130;5.430;2023-06-22T14:02:38;8.80;;;8.10;;
71773;SDS011;59607;52.130;5.430;2023-06-22T14:05:22;10.00;;;9.07;;
71773;SDS011;59607;52.130;5.430;2023-06-22T14:07:49;9.35;;;8.52;;
71773;SDS011;59607;52.130;5.430;2023-06-22T14:10:19;9.52;;;8.68;;
71773;SDS011;59607;52.130;5.430;2023-06-22T14:12:48;10.25;;;9.23;;
71773;SDS011;59607;52.130;5.430;2023-06-22T14:15:17;9.43;;;8.60;;
71773;SDS011;59607;52.130;5.430;2023-06-22T14:17:44;9.27;;;8.38;;
71773;SDS011;59607;52.130;5.430;2023-06-22T14:20:14;8.98;;;8.23;;
71773;SDS011;59607;52.130;5.430;2023-06-22T14:22:40;9.30;;;8.40;;
71773;SDS011;59607;52.130;5.430;2023-06-22T14:25:07;9.52;;;8.73;;
71773;SDS011;59607;52.130;5.430;2023-06-22T14:27:35;9.37;;;8.63;;
71773;SDS011;59607;52.130;5.430;2023-06-22T14:30:05;13.02;;;9.70;;
71773;SDS011;59607;52.130;5.430;2023-06-22T14:32:32;11.10;;;9.27;;
71773;SDS011;59607;52.130;5.430;2023-06-22T14:35:07;10.27;;;9.15;;
71773;SDS011;59607;52.130;5.430;2023-06-22T14:37:33;9.95;;;9.15;;
71773;SDS011;59607;52.130;5.430;2023-06-22T14:40:00;10.53;;;9.53;;
71773;SDS011;59607;52.130;5.430;2023-06-22T14:42:30;10.02;;;9.10;;
71773;SDS011;59607;52.130;5.430;2023-06-22T14:44:56;10.95;;;9.93;;
71773;SDS011;59607;52.130;5.430;2023-06-22T14:47:23;10.82;;;9.80;;
71773;SDS011;59607;52.130;5.430;2023-06-22T14:49:49;11.07;;;9.88;;
71773;SDS011;59607;52.130;5.430;2023-06-22T14:52:18;9.77;;;8.97;;
71773;SDS011;59607;52.130;5.430;2023-06-22T14:54:44;11.57;;;8.90;;
71773;SDS011;59607;52.130;5.430;2023-06-22T14:57:27;11.45;;;10.20;;
71773;SDS011;59607;52.130;5.430;2023-06-22T14:59:59;10.00;;;9.00;;
71773;SDS011;59607;52.130;5.430;2023-06-22T15:02:28;10.15;;;9.13;;
71773;SDS011;59607;52.130;5.430;2023-06-22T15:05:06;10.27;;;9.27;;
71773;SDS011;59607;52.130;5.430;2023-06-22T15:07:39;10.55;;;9.70;;